sensor_id;sensor_type;location;lat;lon;timestamp;P1;durP1;ratioP1;P2;durP2;ratioP2
14734;SDS011;7458;49.002;8.472;2023-06-19T00:02:21;1223.72;;;999.90;;
14734;SDS011;7458;49.002;8.472;2023-06-19T00:04:47;1215.38;;;999.90;;
14734;SDS011;7458;49.002;8.472;2023-06-19T00:07:13;1318.70;;;999.90;;
14734;SDS011;7458;49.002;8.472;2023-06-19T00:09:38;1221.22;;;999.90;;
14734;SDS011;7458;49.002;8.472;2023-06-19T00:12:04;1219.93;;;999.90;;
14734;SDS011;7458;49.002;8.472;2023-06-19T00:14:31;1221.90;;;999.90;;
14734;SDS011;7458;49.002;8.472;2023-06-19T00:16:57;1294.78;;;999.90;;
14734;SDS011;7458;49.002;8.472;2023-06-19T00:19:25;1223.05;;;999.90;;
14734;SDS011;7458;49.002;8.472;2023-06-19T00:21:51;1304.47;;;999.90;;
14734;SDS011;7458;49.002;8.472;2023-06-19T00:24:22;1228.93;;;999.90;;
14734;SDS011;7458;49.002;8.472;2023-06-19T00:26:48;1226.80;;;999.90;;
14734;SDS011;7458;49.002;8.472;2023-06-19T00:29:14;1264.55;;;999.90;;
14734;SDS011;7458;49.002;8.472;2023-06-19T00:31:40;1228.35;;;998.95;;
14734;SDS011;7458;49.002;8.472;2023-06-19T00:34:05;1224.47;;;950.40;;
14734;SDS011;7458;49.002;8.472;2023-06-19T00:36:31;1208.13;;;999.90;;
14734;SDS011;7458;49.002;8.472;2023-06-19T00:38:57;1222.18;;;936.83;;
14734;SDS011;7458;49.002;8.472;2023-06-19T00:41:23;1225.03;;;933.50;;
14734;SDS011;7458;49.002;8.472;2023-06-19T00:43:52;1194.18;;;999.90;;
14734;SDS011;7458;49.002;8.472;2023-06-19T00:46:19;1187.53;;;999.90;;
14734;SDS011;7458;49.002;8.472;2023-06-19T00:48:44;1221.20;;;913.60;;
14734;SDS011;7458;49.002;8.472;2023-06-19T00:51:10;1215.72;;;910.30;;
14734;SDS011;7458;49.002;8.472;2023-06-19T00:53:36;1160.68;;;999.90;;
14734;SDS011;7458;49.002;8.472;2023-06-19T00:56:03;1232.25;;;935.40;;
14734;SDS011;7458;49.002;8.472;2023-06-19T00:58:30;1159.60;;;999.90;;
14734;SDS011;7458;49.002;8.472;2023-06-19T01:00:57;1212.93;;;862.50;;
14734;SDS011;7458;49.002;8.472;2023-06-19T01:03:23;1203.15;;;854.42;;
14734;SDS011;7458;49.002;8.472;2023-06-19T01:05:51;1203.95;;;852.72;;
14734;SDS011;7458;49.002;8.472;2023-06-19T01:11:23;1132.55;;;940.95;;
14734;SDS011;7458;49.002;8.472;2023-06-19T01:17:29;1232.68;;;945.55;;
14734;SDS011;7458;49.002;8.472;2023-06-19T01:19:56;1251.18;;;920.25;;
14734;SDS011;7458;49.002;8.472;2023-06-19T01:22:29;1200.63;;;858.22;;
14734;SDS011;7458;49.002;8.472;2023-06-19T01:24:56;1125.30;;;936.88;;
14734;SDS011;7458;49.002;8.472;2023-06-19T01:27:25;1182.90;;;999.90;;
14734;SDS011;7458;49.002;8.472;2023-06-19T01:29:54;1212.82;;;878.50;;
14734;SDS011;7458;49.002;8.472;2023-06-19T01:32:31;1211.65;;;877.55;;
14734;SDS011;7458;49.002;8.472;2023-06-19T01:35:19;1215.13;;;911.78;;
14734;SDS011;7458;49.002;8.472;2023-06-19T01:37:50;1263.47;;;999.90;;
14734;SDS011;7458;49.002;8.472;2023-06-19T01:40:18;1281.47;;;999.90;;
14734;SDS011;7458;49.002;8.472;2023-06-19T01:42:50;1229.38;;;994.45;;
14734;SDS011;7458;49.002;8.472;2023-06-19T01:45:18;1226.95;;;971.78;;
14734;SDS011;7458;49.002;8.472;2023-06-19T01:47:44;1224.10;;;999.90;;
14734;SDS011;7458;49.002;8.472;2023-06-19T01:50:10;1222.43;;;999.90;;
14734;SDS011;7458;49.002;8.472;2023-06-19T01:52:37;1224.18;;;936.78;;
14734;SDS011;7458;49.002;8.472;2023-06-19T01:55:04;1181.15;;;999.90;;
14734;SDS011;7458;49.002;8.472;2023-06-19T01:57:30;1167.70;;;999.90;;
14734;SDS011;7458;49.002;8.472;2023-06-19T01:59:57;1170.95;;;999.90;;
14734;SDS011;7458;49.002;8.472;2023-06-19T02:02:23;1163.80;;;999.90;;
14734;SDS011;7458;49.002;8.472;2023-06-19T02:04:48;1152.32;;;998.80;;
14734;SDS011;7458;49.002;8.472;2023-06-19T02:07:14;1229.65;;;948.45;;
14734;SDS011;7458;49.002;8.472;2023-06-19T02:09:40;1202.88;;;999.90;;
14734;SDS011;7458;49.002;8.472;2023-06-19T02:12:06;1224.78;;;925.67;;
14734;SDS011;7458;49.002;8.472;2023-06-19T02:14:33;1176.78;;;999.90;;
14734;SDS011;7458;49.002;8.472;2023-06-19T02:16:59;1214.10;;;895.33;;
14734;SDS011;7458;49.002;8.472;2023-06-19T02:19:24;1225.35;;;921.75;;
14734;SDS011;7458;49.002;8.472;2023-06-19T02:21:50;1164.45;;;999.90;;
14734;SDS011;7458;49.002;8.472;2023-06-19T02:24:16;1166.47;;;999.90;;
14734;SDS011;7458;49.002;8.472;2023-06-19T02:26:42;1172.47;;;999.90;;
14734;SDS011;7458;49.002;8.472;2023-06-19T02:29:09;1228.25;;;971.95;;
14734;SDS011;7458;49.002;8.472;2023-06-19T02:31:35;1223.75;;;999.90;;
14734;SDS011;7458;49.002;8.472;2023-06-19T02:34:00;1274.82;;;999.90;;
14734;SDS011;7458;49.002;8.472;2023-06-19T02:36:26;1280.85;;;999.90;;
14734;SDS011;7458;49.002;8.472;2023-06-19T02:38:53;1266.75;;;999.90;;
14734;SDS011;7458;49.002;8.472;2023-06-19T02:41:19;1265.63;;;999.90;;
14734;SDS011;7458;49.002;8.472;2023-06-19T02:43:45;1268.75;;;999.90;;
14734;SDS011;7458;49.002;8.472;2023-06-19T02:46:11;1278.32;;;999.90;;
14734;SDS011;7458;49.002;8.472;2023-06-19T02:48:38;1285.72;;;999.90;;
14734;SDS011;7458;49.002;8.472;2023-06-19T02:51:03;1216.50;;;999.90;;
14734;SDS011;7458;49.002;8.472;2023-06-19T02:53:29;1210.25;;;999.90;;
14734;SDS011;7458;49.002;8.472;2023-06-19T02:55:55;1308.15;;;999.90;;
14734;SDS011;7458;49.002;8.472;2023-06-19T02:58:21;1201.43;;;999.90;;
14734;SDS011;7458;49.002;8.472;2023-06-19T03:00:46;1234.65;;;999.90;;
14734;SDS011;7458;49.002;8.472;2023-06-19T03:03:13;1215.63;;;999.90;;
14734;SDS011;7458;49.002;8.472;2023-06-19T03:05:39;1325.03;;;999.90;;
14734;SDS011;7458;49.002;8.472;2023-06-19T03:08:04;1212.97;;;999.90;;
14734;SDS011;7458;49.002;8.472;2023-06-19T03:10:31;1226.90;;;999.90;;
14734;SDS011;7458;49.002;8.472;2023-06-19T03:12:56;1309.25;;;999.90;;
14734;SDS011;7458;49.002;8.472;2023-06-19T03:15:24;1221.82;;;999.90;;
14734;SDS011;7458;49.002;8.472;2023-06-19T03:17:50;1309.72;;;999.90;;
14734;SDS011;7458;49.002;8.472;2023-06-19T03:20:17;1318.47;;;999.90;;
14734;SDS011;7458;49.002;8.472;2023-06-19T03:22:43;1221.63;;;999.90;;
14734;SDS011;7458;49.002;8.472;2023-06-19T03:25:09;1213.05;;;999.90;;
14734;SDS011;7458;49.002;8.472;2023-06-19T03:27:35;1332.72;;;999.90;;
14734;SDS011;7458;49.002;8.472;2023-06-19T03:30:01;1321.70;;;999.90;;
14734;SDS011;7458;49.002;8.472;2023-06-19T03:32:32;1241.03;;;999.90;;
14734;SDS011;7458;49.002;8.472;2023-06-19T03:34:59;1246.30;;;999.90;;
14734;SDS011;7458;49.002;8.472;2023-06-19T03:37:26;1220.18;;;999.90;;
14734;SDS011;7458;49.002;8.472;2023-06-19T03:39:51;1239.65;;;999.90;;
14734;SDS011;7458;49.002;8.472;2023-06-19T03:42:17;1227.95;;;999.90;;
14734;SDS011;7458;49.002;8.472;2023-06-19T03:44:43;1328.78;;;999.90;;
14734;SDS011;7458;49.002;8.472;2023-06-19T03:47:09;1323.25;;;999.90;;
14734;SDS011;7458;49.002;8.472;2023-06-19T03:49:34;1236.32;;;999.90;;
14734;SDS011;7458;49.002;8.472;2023-06-19T03:52:00;1311.85;;;999.90;;
14734;SDS011;7458;49.002;8.472;2023-06-19T03:54:27;1315.20;;;999.90;;
14734;SDS011;7458;49.002;8.472;2023-06-19T03:56:52;1237.15;;;999.90;;
14734;SDS011;7458;49.002;8.472;2023-06-19T03:59:18;1216.32;;;999.90;;
14734;SDS011;7458;49.002;8.472;2023-06-19T04:01:44;1309.20;;;999.90;;
14734;SDS011;7458;49.002;8.472;2023-06-19T04:04:10;1318.97;;;999.90;;
14734;SDS011;7458;49.002;8.472;2023-06-19T04:06:35;1239.75;;;999.90;;
14734;SDS011;7458;49.002;8.472;2023-06-19T04:09:01;1242.10;;;999.90;;
14734;SDS011;7458;49.002;8.472;2023-06-19T04:11:27;1240.45;;;999.90;;
14734;SDS011;7458;49.002;8.472;2023-06-19T04:13:53;1323.78;;;999.90;;
14734;SDS011;7458;49.002;8.472;2023-06-19T04:16:19;1329.47;;;999.90;;
14734;SDS011;7458;49.002;8.472;2023-06-19T04:18:44;1365.35;;;999.90;;
14734;SDS011;7458;49.002;8.472;2023-06-19T04:21:11;1251.57;;;999.90;;
14734;SDS011;7458;49.002;8.472;2023-06-19T04:23:37;1246.93;;;999.90;;
14734;SDS011;7458;49.002;8.472;2023-06-19T04:26:03;1238.85;;;999.90;;
14734;SDS011;7458;49.002;8.472;2023-06-19T04:28:28;1252.00;;;999.90;;
14734;SDS011;7458;49.002;8.472;2023-06-19T04:30:54;1263.85;;;999.90;;
14734;SDS011;7458;49.002;8.472;2023-06-19T04:33:26;1249.57;;;999.90;;
14734;SDS011;7458;49.002;8.472;2023-06-19T04:35:53;1293.50;;;999.90;;
14734;SDS011;7458;49.002;8.472;2023-06-19T04:38:19;1307.55;;;999.90;;
14734;SDS011;7458;49.002;8.472;2023-06-19T04:40:49;1245.60;;;999.90;;
14734;SDS011;7458;49.002;8.472;2023-06-19T04:43:18;1328.57;;;999.90;;
14734;SDS011;7458;49.002;8.472;2023-06-19T04:45:44;1320.63;;;999.90;;
14734;SDS011;7458;49.002;8.472;2023-06-19T04:48:10;1210.60;;;999.90;;
14734;SDS011;7458;49.002;8.472;2023-06-19T04:50:36;1324.97;;;999.90;;
14734;SDS011;7458;49.002;8.472;2023-06-19T04:53:02;1319.47;;;999.90;;
14734;SDS011;7458;49.002;8.472;2023-06-19T04:55:28;1324.88;;;999.90;;
14734;SDS011;7458;49.002;8.472;2023-06-19T04:57:55;1204.07;;;999.90;;
14734;SDS011;7458;49.002;8.472;2023-06-19T05:00:21;1211.35;;;999.90;;
14734;SDS011;7458;49.002;8.472;2023-06-19T05:02:48;1198.47;;;999.90;;
14734;SDS011;7458;49.002;8.472;2023-06-19T05:05:15;1209.05;;;999.90;;
14734;SDS011;7458;49.002;8.472;2023-06-19T05:07:42;1307.55;;;999.90;;
14734;SDS011;7458;49.002;8.472;2023-06-19T05:10:07;1360.50;;;999.90;;
14734;SDS011;7458;49.002;8.472;2023-06-19T05:12:34;1372.68;;;999.90;;
14734;SDS011;7458;49.002;8.472;2023-06-19T05:15:00;1294.47;;;999.90;;
14734;SDS011;7458;49.002;8.472;2023-06-19T05:17:27;1367.22;;;999.90;;
14734;SDS011;7458;49.002;8.472;2023-06-19T05:19:53;1271.15;;;999.90;;
14734;SDS011;7458;49.002;8.472;2023-06-19T05:22:18;1268.28;;;999.90;;
14734;SDS011;7458;49.002;8.472;2023-06-19T05:24:46;1367.70;;;999.90;;
14734;SDS011;7458;49.002;8.472;2023-06-19T05:27:12;1370.07;;;999.90;;
14734;SDS011;7458;49.002;8.472;2023-06-19T05:29:38;1371.75;;;999.90;;
14734;SDS011;7458;49.002;8.472;2023-06-19T05:32:04;1294.18;;;999.90;;
14734;SDS011;7458;49.002;8.472;2023-06-19T05:34:30;1293.85;;;999.90;;
14734;SDS011;7458;49.002;8.472;2023-06-19T05:36:57;1373.95;;;999.90;;
14734;SDS011;7458;49.002;8.472;2023-06-19T05:39:25;1372.32;;;999.90;;
14734;SDS011;7458;49.002;8.472;2023-06-19T05:41:51;1285.07;;;999.90;;
14734;SDS011;7458;49.002;8.472;2023-06-19T05:44:17;1285.97;;;999.90;;
14734;SDS011;7458;49.002;8.472;2023-06-19T05:46:43;1288.90;;;999.90;;
14734;SDS011;7458;49.002;8.472;2023-06-19T05:49:09;1369.43;;;999.90;;
14734;SDS011;7458;49.002;8.472;2023-06-19T05:51:36;1286.45;;;999.90;;
14734;SDS011;7458;49.002;8.472;2023-06-19T05:54:02;1284.20;;;999.90;;
14734;SDS011;7458;49.002;8.472;2023-06-19T05:56:32;1278.60;;;999.90;;
14734;SDS011;7458;49.002;8.472;2023-06-19T05:58:59;1382.55;;;999.90;;
14734;SDS011;7458;49.002;8.472;2023-06-19T06:01:26;1305.40;;;999.90;;
14734;SDS011;7458;49.002;8.472;2023-06-19T06:03:55;1393.72;;;999.90;;
14734;SDS011;7458;49.002;8.472;2023-06-19T06:06:22;1336.43;;;999.90;;
14734;SDS011;7458;49.002;8.472;2023-06-19T06:08:49;1329.15;;;999.90;;
14734;SDS011;7458;49.002;8.472;2023-06-19T06:11:16;1402.78;;;999.90;;
14734;SDS011;7458;49.002;8.472;2023-06-19T06:13:42;1401.72;;;999.90;;
14734;SDS011;7458;49.002;8.472;2023-06-19T06:16:08;1407.35;;;999.90;;
14734;SDS011;7458;49.002;8.472;2023-06-19T06:18:34;1324.57;;;999.90;;
14734;SDS011;7458;49.002;8.472;2023-06-19T06:21:00;1408.63;;;999.90;;
14734;SDS011;7458;49.002;8.472;2023-06-19T06:23:26;1324.32;;;999.90;;
14734;SDS011;7458;49.002;8.472;2023-06-19T06:25:52;1398.13;;;999.90;;
14734;SDS011;7458;49.002;8.472;2023-06-19T06:28:17;1330.13;;;999.90;;
14734;SDS011;7458;49.002;8.472;2023-06-19T06:30:43;1417.68;;;999.90;;
14734;SDS011;7458;49.002;8.472;2023-06-19T06:33:09;1402.35;;;999.90;;
14734;SDS011;7458;49.002;8.472;2023-06-19T06:35:35;1314.88;;;999.90;;
14734;SDS011;7458;49.002;8.472;2023-06-19T06:38:01;1434.88;;;999.90;;
14734;SDS011;7458;49.002;8.472;2023-06-19T06:40:27;1412.38;;;999.90;;
14734;SDS011;7458;49.002;8.472;2023-06-19T06:42:53;1388.95;;;999.90;;
14734;SDS011;7458;49.002;8.472;2023-06-19T06:45:20;1390.25;;;999.90;;
14734;SDS011;7458;49.002;8.472;2023-06-19T06:47:45;1347.25;;;999.90;;
14734;SDS011;7458;49.002;8.472;2023-06-19T06:50:11;1398.45;;;999.90;;
14734;SDS011;7458;49.002;8.472;2023-06-19T06:52:37;1326.75;;;999.90;;
14734;SDS011;7458;49.002;8.472;2023-06-19T06:55:04;1366.35;;;999.90;;
14734;SDS011;7458;49.002;8.472;2023-06-19T06:57:30;1294.07;;;999.90;;
14734;SDS011;7458;49.002;8.472;2023-06-19T06:59:56;1268.22;;;999.90;;
14734;SDS011;7458;49.002;8.472;2023-06-19T07:02:21;1415.85;;;999.90;;
14734;SDS011;7458;49.002;8.472;2023-06-19T07:04:47;1423.85;;;999.90;;
14734;SDS011;7458;49.002;8.472;2023-06-19T07:07:13;1417.80;;;999.90;;
14734;SDS011;7458;49.002;8.472;2023-06-19T07:09:39;1338.60;;;999.90;;
14734;SDS011;7458;49.002;8.472;2023-06-19T07:12:04;1333.28;;;999.90;;
14734;SDS011;7458;49.002;8.472;2023-06-19T07:14:32;1324.68;;;999.90;;
14734;SDS011;7458;49.002;8.472;2023-06-19T07:16:58;1408.50;;;999.90;;
14734;SDS011;7458;49.002;8.472;2023-06-19T07:19:23;1312.88;;;999.90;;
14734;SDS011;7458;49.002;8.472;2023-06-19T07:21:49;1392.85;;;999.90;;
14734;SDS011;7458;49.002;8.472;2023-06-19T07:24:16;1386.93;;;999.90;;
14734;SDS011;7458;49.002;8.472;2023-06-19T07:26:42;1394.55;;;999.90;;
14734;SDS011;7458;49.002;8.472;2023-06-19T07:29:08;1405.95;;;999.90;;
14734;SDS011;7458;49.002;8.472;2023-06-19T07:31:34;1315.40;;;999.90;;
14734;SDS011;7458;49.002;8.472;2023-06-19T07:33:59;1328.80;;;999.90;;
14734;SDS011;7458;49.002;8.472;2023-06-19T07:36:25;1322.32;;;999.90;;
14734;SDS011;7458;49.002;8.472;2023-06-19T07:38:51;1403.95;;;999.90;;
14734;SDS011;7458;49.002;8.472;2023-06-19T07:41:18;1304.15;;;999.90;;
14734;SDS011;7458;49.002;8.472;2023-06-19T07:43:43;1391.40;;;999.90;;
14734;SDS011;7458;49.002;8.472;2023-06-19T07:46:09;1291.13;;;999.90;;
14734;SDS011;7458;49.002;8.472;2023-06-19T07:48:35;1391.55;;;999.90;;
14734;SDS011;7458;49.002;8.472;2023-06-19T07:51:01;1279.53;;;999.90;;
14734;SDS011;7458;49.002;8.472;2023-06-19T07:53:27;1449.75;;;999.90;;
14734;SDS011;7458;49.002;8.472;2023-06-19T07:55:53;1393.53;;;999.90;;
14734;SDS011;7458;49.002;8.472;2023-06-19T07:58:18;1394.20;;;999.90;;
14734;SDS011;7458;49.002;8.472;2023-06-19T08:00:44;1394.57;;;999.90;;
14734;SDS011;7458;49.002;8.472;2023-06-19T08:03:10;1380.13;;;999.90;;
14734;SDS011;7458;49.002;8.472;2023-06-19T08:05:36;1274.57;;;999.90;;
14734;SDS011;7458;49.002;8.472;2023-06-19T08:08:01;1377.22;;;999.90;;
14734;SDS011;7458;49.002;8.472;2023-06-19T08:10:27;1275.93;;;999.90;;
14734;SDS011;7458;49.002;8.472;2023-06-19T08:12:53;1366.50;;;999.90;;
14734;SDS011;7458;49.002;8.472;2023-06-19T08:15:19;1364.53;;;999.90;;
14734;SDS011;7458;49.002;8.472;2023-06-19T08:17:45;1240.93;;;999.90;;
14734;SDS011;7458;49.002;8.472;2023-06-19T08:20:11;1221.65;;;999.90;;
14734;SDS011;7458;49.002;8.472;2023-06-19T08:22:37;1329.70;;;999.90;;
14734;SDS011;7458;49.002;8.472;2023-06-19T08:25:03;1338.63;;;999.90;;
14734;SDS011;7458;49.002;8.472;2023-06-19T08:27:30;1357.55;;;999.90;;
14734;SDS011;7458;49.002;8.472;2023-06-19T08:29:55;1236.35;;;999.90;;
14734;SDS011;7458;49.002;8.472;2023-06-19T08:32:21;1340.80;;;999.90;;
14734;SDS011;7458;49.002;8.472;2023-06-19T08:34:47;1329.63;;;999.90;;
14734;SDS011;7458;49.002;8.472;2023-06-19T08:37:13;1209.85;;;999.90;;
14734;SDS011;7458;49.002;8.472;2023-06-19T08:39:38;1346.63;;;999.90;;
14734;SDS011;7458;49.002;8.472;2023-06-19T08:42:08;1254.30;;;999.90;;
14734;SDS011;7458;49.002;8.472;2023-06-19T08:44:34;1360.78;;;999.90;;
14734;SDS011;7458;49.002;8.472;2023-06-19T08:47:01;1236.28;;;999.90;;
14734;SDS011;7458;49.002;8.472;2023-06-19T08:49:35;1240.85;;;999.90;;
14734;SDS011;7458;49.002;8.472;2023-06-19T08:52:02;1254.88;;;999.90;;
14734;SDS011;7458;49.002;8.472;2023-06-19T08:54:28;1352.72;;;999.90;;
14734;SDS011;7458;49.002;8.472;2023-06-19T08:56:54;1352.18;;;999.90;;
14734;SDS011;7458;49.002;8.472;2023-06-19T08:59:20;1233.60;;;999.90;;
14734;SDS011;7458;49.002;8.472;2023-06-19T09:01:52;1349.15;;;999.90;;
14734;SDS011;7458;49.002;8.472;2023-06-19T09:04:20;1244.68;;;999.90;;
14734;SDS011;7458;49.002;8.472;2023-06-19T09:06:56;1263.20;;;999.90;;
14734;SDS011;7458;49.002;8.472;2023-06-19T09:09:27;1254.10;;;999.90;;
14734;SDS011;7458;49.002;8.472;2023-06-19T09:14:42;1238.25;;;999.90;;
14734;SDS011;7458;49.002;8.472;2023-06-19T09:17:11;1325.93;;;999.90;;
14734;SDS011;7458;49.002;8.472;2023-06-19T09:19:49;1318.68;;;999.90;;
14734;SDS011;7458;49.002;8.472;2023-06-19T09:22:22;1237.07;;;999.90;;
14734;SDS011;7458;49.002;8.472;2023-06-19T09:24:50;1211.55;;;999.90;;
14734;SDS011;7458;49.002;8.472;2023-06-19T09:27:16;1327.72;;;999.90;;
14734;SDS011;7458;49.002;8.472;2023-06-19T09:29:45;1209.93;;;999.90;;
14734;SDS011;7458;49.002;8.472;2023-06-19T09:34:56;1203.40;;;999.90;;
14734;SDS011;7458;49.002;8.472;2023-06-19T09:37:26;1215.13;;;999.90;;
14734;SDS011;7458;49.002;8.472;2023-06-19T09:39:56;1230.75;;;999.90;;
14734;SDS011;7458;49.002;8.472;2023-06-19T09:42:35;1331.80;;;999.90;;
14734;SDS011;7458;49.002;8.472;2023-06-19T09:45:03;1322.55;;;999.90;;
14734;SDS011;7458;49.002;8.472;2023-06-19T09:47:32;1223.07;;;999.90;;
14734;SDS011;7458;49.002;8.472;2023-06-19T09:50:04;1238.63;;;999.90;;
14734;SDS011;7458;49.002;8.472;2023-06-19T09:52:32;1343.65;;;999.90;;
14734;SDS011;7458;49.002;8.472;2023-06-19T09:55:00;1262.43;;;999.90;;
14734;SDS011;7458;49.002;8.472;2023-06-19T09:57:29;1258.63;;;999.90;;
14734;SDS011;7458;49.002;8.472;2023-06-19T09:59:57;1337.05;;;999.90;;
14734;SDS011;7458;49.002;8.472;2023-06-19T10:02:37;1318.72;;;999.90;;
14734;SDS011;7458;49.002;8.472;2023-06-19T10:05:05;1224.95;;;999.90;;
14734;SDS011;7458;49.002;8.472;2023-06-19T10:07:37;1339.80;;;999.90;;
14734;SDS011;7458;49.002;8.472;2023-06-19T10:10:08;1312.90;;;999.90;;
14734;SDS011;7458;49.002;8.472;2023-06-19T10:12:44;1242.35;;;999.90;;
14734;SDS011;7458;49.002;8.472;2023-06-19T10:17:48;1326.13;;;999.90;;
14734;SDS011;7458;49.002;8.472;2023-06-19T10:20:26;1217.65;;;999.90;;
14734;SDS011;7458;49.002;8.472;2023-06-19T10:28:26;1322.60;;;999.90;;
14734;SDS011;7458;49.002;8.472;2023-06-19T10:30:58;1325.03;;;999.90;;
14734;SDS011;7458;49.002;8.472;2023-06-19T10:33:29;1311.00;;;999.90;;
14734;SDS011;7458;49.002;8.472;2023-06-19T10:35:58;1179.50;;;999.90;;
14734;SDS011;7458;49.002;8.472;2023-06-19T10:38:27;1314.18;;;999.90;;
14734;SDS011;7458;49.002;8.472;2023-06-19T10:40:54;1177.90;;;999.90;;
14734;SDS011;7458;49.002;8.472;2023-06-19T10:43:21;1232.85;;;999.90;;
14734;SDS011;7458;49.002;8.472;2023-06-19T10:45:53;1332.28;;;999.90;;
14734;SDS011;7458;49.002;8.472;2023-06-19T10:48:22;1215.78;;;999.90;;
14734;SDS011;7458;49.002;8.472;2023-06-19T10:50:50;1338.82;;;999.90;;
14734;SDS011;7458;49.002;8.472;2023-06-19T10:53:26;1320.95;;;999.90;;
14734;SDS011;7458;49.002;8.472;2023-06-19T10:55:56;1321.50;;;999.90;;
14734;SDS011;7458;49.002;8.472;2023-06-19T10:58:25;1314.45;;;999.90;;
14734;SDS011;7458;49.002;8.472;2023-06-19T11:00:52;1194.85;;;999.90;;
14734;SDS011;7458;49.002;8.472;2023-06-19T11:03:21;1319.30;;;999.90;;
14734;SDS011;7458;49.002;8.472;2023-06-19T11:05:47;1260.30;;;999.90;;
14734;SDS011;7458;49.002;8.472;2023-06-19T11:08:18;1357.40;;;999.90;;
14734;SDS011;7458;49.002;8.472;2023-06-19T11:10:45;1340.93;;;999.90;;
14734;SDS011;7458;49.002;8.472;2023-06-19T11:13:29;1333.05;;;999.90;;
14734;SDS011;7458;49.002;8.472;2023-06-19T11:15:54;1331.20;;;999.90;;
14734;SDS011;7458;49.002;8.472;2023-06-19T11:18:23;1329.22;;;999.90;;
14734;SDS011;7458;49.002;8.472;2023-06-19T11:20:49;1346.20;;;999.90;;
14734;SDS011;7458;49.002;8.472;2023-06-19T11:23:24;1355.30;;;999.90;;
14734;SDS011;7458;49.002;8.472;2023-06-19T11:26:01;1341.50;;;999.90;;
14734;SDS011;7458;49.002;8.472;2023-06-19T11:28:31;1217.57;;;999.90;;
14734;SDS011;7458;49.002;8.472;2023-06-19T11:31:03;1216.07;;;999.90;;
14734;SDS011;7458;49.002;8.472;2023-06-19T11:33:29;1335.60;;;999.90;;
14734;SDS011;7458;49.002;8.472;2023-06-19T11:35:58;1343.28;;;999.90;;
14734;SDS011;7458;49.002;8.472;2023-06-19T11:38:26;1206.60;;;999.90;;
14734;SDS011;7458;49.002;8.472;2023-06-19T11:40:53;1183.82;;;999.90;;
14734;SDS011;7458;49.002;8.472;2023-06-19T11:43:28;1331.55;;;999.90;;
14734;SDS011;7458;49.002;8.472;2023-06-19T11:46:02;1240.03;;;999.90;;
14734;SDS011;7458;49.002;8.472;2023-06-19T11:48:34;1204.35;;;999.90;;
14734;SDS011;7458;49.002;8.472;2023-06-19T11:51:02;1224.10;;;999.90;;
14734;SDS011;7458;49.002;8.472;2023-06-19T11:53:28;1204.13;;;999.90;;
14734;SDS011;7458;49.002;8.472;2023-06-19T11:55:54;1315.75;;;999.90;;
14734;SDS011;7458;49.002;8.472;2023-06-19T11:58:20;1191.05;;;999.90;;
14734;SDS011;7458;49.002;8.472;2023-06-19T12:00:46;1200.40;;;999.90;;
14734;SDS011;7458;49.002;8.472;2023-06-19T12:03:13;1189.53;;;999.90;;
14734;SDS011;7458;49.002;8.472;2023-06-19T12:05:39;1189.88;;;999.90;;
14734;SDS011;7458;49.002;8.472;2023-06-19T12:08:05;1308.13;;;999.90;;
14734;SDS011;7458;49.002;8.472;2023-06-19T12:10:32;1316.70;;;999.90;;
14734;SDS011;7458;49.002;8.472;2023-06-19T12:12:59;1183.50;;;999.90;;
14734;SDS011;7458;49.002;8.472;2023-06-19T12:15:25;1323.15;;;999.90;;
14734;SDS011;7458;49.002;8.472;2023-06-19T12:17:51;1313.18;;;999.90;;
14734;SDS011;7458;49.002;8.472;2023-06-19T12:20:17;1334.80;;;999.90;;
14734;SDS011;7458;49.002;8.472;2023-06-19T12:22:44;1299.60;;;999.90;;
14734;SDS011;7458;49.002;8.472;2023-06-19T12:25:10;1191.32;;;999.90;;
14734;SDS011;7458;49.002;8.472;2023-06-19T12:27:37;1201.22;;;999.90;;
14734;SDS011;7458;49.002;8.472;2023-06-19T12:30:04;1207.05;;;999.90;;
14734;SDS011;7458;49.002;8.472;2023-06-19T12:32:34;1204.82;;;999.90;;
14734;SDS011;7458;49.002;8.472;2023-06-19T12:34:59;1314.30;;;999.90;;
14734;SDS011;7458;49.002;8.472;2023-06-19T12:37:25;1221.13;;;999.90;;
14734;SDS011;7458;49.002;8.472;2023-06-19T12:39:51;1213.97;;;999.90;;
14734;SDS011;7458;49.002;8.472;2023-06-19T12:42:17;1204.32;;;999.90;;
14734;SDS011;7458;49.002;8.472;2023-06-19T12:44:43;1212.28;;;999.90;;
14734;SDS011;7458;49.002;8.472;2023-06-19T12:47:09;1314.45;;;999.90;;
14734;SDS011;7458;49.002;8.472;2023-06-19T12:49:36;1201.70;;;999.90;;
14734;SDS011;7458;49.002;8.472;2023-06-19T12:52:01;1193.28;;;999.90;;
14734;SDS011;7458;49.002;8.472;2023-06-19T12:54:27;1318.13;;;999.90;;
14734;SDS011;7458;49.002;8.472;2023-06-19T12:56:54;1304.97;;;999.90;;
14734;SDS011;7458;49.002;8.472;2023-06-19T12:59:20;1196.57;;;999.90;;
14734;SDS011;7458;49.002;8.472;2023-06-19T13:01:45;1383.22;;;999.90;;
14734;SDS011;7458;49.002;8.472;2023-06-19T13:04:11;1311.07;;;999.90;;
14734;SDS011;7458;49.002;8.472;2023-06-19T13:06:37;1210.00;;;999.90;;
14734;SDS011;7458;49.002;8.472;2023-06-19T13:09:04;1227.28;;;999.90;;
14734;SDS011;7458;49.002;8.472;2023-06-19T13:11:31;1338.80;;;999.90;;
14734;SDS011;7458;49.002;8.472;2023-06-19T13:13:59;1233.55;;;999.90;;
14734;SDS011;7458;49.002;8.472;2023-06-19T13:16:28;1234.72;;;999.90;;
14734;SDS011;7458;49.002;8.472;2023-06-19T13:18:53;1236.55;;;999.90;;
14734;SDS011;7458;49.002;8.472;2023-06-19T13:21:19;1316.90;;;999.90;;
14734;SDS011;7458;49.002;8.472;2023-06-19T13:23:45;1163.88;;;999.90;;
14734;SDS011;7458;49.002;8.472;2023-06-19T13:26:11;1175.30;;;999.90;;
14734;SDS011;7458;49.002;8.472;2023-06-19T13:28:37;1169.82;;;999.90;;
14734;SDS011;7458;49.002;8.472;2023-06-19T13:31:03;1340.57;;;999.90;;
14734;SDS011;7458;49.002;8.472;2023-06-19T13:33:28;1338.07;;;999.90;;
14734;SDS011;7458;49.002;8.472;2023-06-19T13:35:54;1219.45;;;999.90;;
14734;SDS011;7458;49.002;8.472;2023-06-19T13:38:20;1322.72;;;999.90;;
14734;SDS011;7458;49.002;8.472;2023-06-19T13:40:46;1191.43;;;999.90;;
14734;SDS011;7458;49.002;8.472;2023-06-19T13:43:12;1303.07;;;999.90;;
14734;SDS011;7458;49.002;8.472;2023-06-19T13:45:39;1299.80;;;999.90;;
14734;SDS011;7458;49.002;8.472;2023-06-19T13:48:05;1213.82;;;999.90;;
14734;SDS011;7458;49.002;8.472;2023-06-19T13:50:31;1278.43;;;999.90;;
14734;SDS011;7458;49.002;8.472;2023-06-19T13:52:58;1328.70;;;999.90;;
14734;SDS011;7458;49.002;8.472;2023-06-19T13:55:25;1305.78;;;999.90;;
14734;SDS011;7458;49.002;8.472;2023-06-19T13:57:50;1307.15;;;999.90;;
14734;SDS011;7458;49.002;8.472;2023-06-19T14:00:17;1205.80;;;999.90;;
14734;SDS011;7458;49.002;8.472;2023-06-19T14:02:44;1303.82;;;999.90;;
14734;SDS011;7458;49.002;8.472;2023-06-19T14:05:10;1300.85;;;999.90;;
14734;SDS011;7458;49.002;8.472;2023-06-19T14:07:39;1178.50;;;999.90;;
14734;SDS011;7458;49.002;8.472;2023-06-19T14:10:09;1349.65;;;999.90;;
14734;SDS011;7458;49.002;8.472;2023-06-19T14:12:35;1387.28;;;999.90;;
14734;SDS011;7458;49.002;8.472;2023-06-19T14:15:01;1391.35;;;999.90;;
14734;SDS011;7458;49.002;8.472;2023-06-19T14:17:27;1428.95;;;999.90;;